sensor_id;sensor_type;location;lat;lon;timestamp;P1;durP1;ratioP1;P2;durP2;ratioP2
12112;SDS011;6120;52.250;8.478;2022-11-20T00:00:39;12.70;;;6.47;;
12112;SDS011;6120;52.250;8.478;2022-11-20T00:03:05;13.43;;;6.72;;
12112;SDS011;6120;52.250;8.478;2022-11-20T00:05:33;15.27;;;6.38;;
12112;SDS011;6120;52.250;8.478;2022-11-20T00:07:59;14.55;;;6.50;;
12112;SDS011;6120;52.250;8.478;2022-11-20T00:10:26;13.30;;;6.68;;
12112;SDS011;6120;52.250;8.478;2022-11-20T00:12:53;14.43;;;6.85;;
12112;SDS011;6120;52.250;8.478;2022-11-20T00:15:19;15.77;;;7.50;;
12112;SDS011;6120;52.250;8.478;2022-11-20T00:17:46;18.13;;;7.97;;
12112;SDS011;6120;52.250;8.478;2022-11-20T00:20:13;16.80;;;7.85;;
12112;SDS011;6120;52.250;8.478;2022-11-20T00:22:39;16.95;;;7.63;;
12112;SDS011;6120;52.250;8.478;2022-11-20T00:25:06;18.98;;;8.70;;
12112;SDS011;6120;52.250;8.478;2022-11-20T00:27:33;29.02;;;11.20;;
12112;SDS011;6120;52.250;8.478;2022-11-20T00:30:00;28.77;;;11.68;;
12112;SDS011;6120;52.250;8.478;2022-11-20T00:32:26;27.25;;;11.70;;
12112;SDS011;6120;52.250;8.478;2022-11-20T00:34:53;28.92;;;11.38;;
12112;SDS011;6120;52.250;8.478;2022-11-20T00:37:19;27.20;;;11.15;;
12112;SDS011;6120;52.250;8.478;2022-11-20T00:39:46;24.65;;;11.35;;
12112;SDS011;6120;52.250;8.478;2022-11-20T00:42:13;28.10;;;11.50;;
12112;SDS011;6120;52.250;8.478;2022-11-20T00:44:39;22.50;;;10.57;;
12112;SDS011;6120;52.250;8.478;2022-11-20T00:47:06;22.10;;;11.13;;
12112;SDS011;6120;52.250;8.478;2022-11-20T00:49:32;23.88;;;10.77;;
12112;SDS011;6120;52.250;8.478;2022-11-20T00:51:59;23.35;;;11.30;;
12112;SDS011;6120;52.250;8.478;2022-11-20T00:54:26;22.58;;;10.93;;
12112;SDS011;6120;52.250;8.478;2022-11-20T00:56:52;19.73;;;10.27;;
12112;SDS011;6120;52.250;8.478;2022-11-20T00:59:19;19.92;;;9.70;;
12112;SDS011;6120;52.250;8.478;2022-11-20T01:01:46;20.63;;;9.48;;
12112;SDS011;6120;52.250;8.478;2022-11-20T01:04:13;19.75;;;10.02;;
12112;SDS011;6120;52.250;8.478;2022-11-20T01:06:40;22.50;;;10.75;;
12112;SDS011;6120;52.250;8.478;2022-11-20T01:09:08;21.40;;;9.75;;
12112;SDS011;6120;52.250;8.478;2022-11-20T01:11:38;21.17;;;10.57;;
12112;SDS011;6120;52.250;8.478;2022-11-20T01:14:06;16.60;;;8.43;;
12112;SDS011;6120;52.250;8.478;2022-11-20T01:16:39;17.48;;;8.23;;
12112;SDS011;6120;52.250;8.478;2022-11-20T01:19:09;18.75;;;9.48;;
12112;SDS011;6120;52.250;8.478;2022-11-20T01:21:43;17.35;;;8.48;;
12112;SDS011;6120;52.250;8.478;2022-11-20T01:24:12;18.10;;;8.93;;
12112;SDS011;6120;52.250;8.478;2022-11-20T01:26:40;16.60;;;8.48;;
12112;SDS011;6120;52.250;8.478;2022-11-20T01:29:08;19.08;;;9.55;;
12112;SDS011;6120;52.250;8.478;2022-11-20T01:31:40;18.00;;;9.30;;
12112;SDS011;6120;52.250;8.478;2022-11-20T01:34:09;25.48;;;10.30;;
12112;SDS011;6120;52.250;8.478;2022-11-20T01:36:37;22.40;;;9.50;;
12112;SDS011;6120;52.250;8.478;2022-11-20T01:39:10;20.37;;;9.73;;
12112;SDS011;6120;52.250;8.478;2022-11-20T01:41:38;19.63;;;9.23;;
12112;SDS011;6120;52.250;8.478;2022-11-20T01:47:09;19.20;;;10.38;;
12112;SDS011;6120;52.250;8.478;2022-11-20T01:49:39;19.13;;;10.00;;
12112;SDS011;6120;52.250;8.478;2022-11-20T01:52:20;22.23;;;11.38;;
12112;SDS011;6120;52.250;8.478;2022-11-20T01:54:58;18.95;;;10.38;;
12112;SDS011;6120;52.250;8.478;2022-11-20T01:57:27;19.48;;;10.13;;
12112;SDS011;6120;52.250;8.478;2022-11-20T02:00:09;25.73;;;11.05;;
12112;SDS011;6120;52.250;8.478;2022-11-20T02:02:38;20.45;;;10.75;;
12112;SDS011;6120;52.250;8.478;2022-11-20T02:07:57;21.63;;;11.20;;
12112;SDS011;6120;52.250;8.478;2022-11-20T02:10:26;22.27;;;11.10;;
12112;SDS011;6120;52.250;8.478;2022-11-20T02:12:53;21.00;;;10.55;;
12112;SDS011;6120;52.250;8.478;2022-11-20T02:15:38;18.30;;;10.13;;
12112;SDS011;6120;52.250;8.478;2022-11-20T02:18:05;19.10;;;10.32;;
12112;SDS011;6120;52.250;8.478;2022-11-20T02:20:32;20.67;;;10.48;;
12112;SDS011;6120;52.250;8.478;2022-11-20T02:23:00;24.55;;;11.68;;
12112;SDS011;6120;52.250;8.478;2022-11-20T02:25:29;23.10;;;10.63;;
12112;SDS011;6120;52.250;8.478;2022-11-20T02:27:57;21.13;;;10.40;;
12112;SDS011;6120;52.250;8.478;2022-11-20T02:30:23;22.45;;;11.82;;
12112;SDS011;6120;52.250;8.478;2022-11-20T02:32:50;24.23;;;11.48;;
12112;SDS011;6120;52.250;8.478;2022-11-20T02:37:44;22.65;;;10.75;;
12112;SDS011;6120;52.250;8.478;2022-11-20T02:40:11;20.73;;;11.13;;
12112;SDS011;6120;52.250;8.478;2022-11-20T02:42:38;22.88;;;11.60;;
12112;SDS011;6120;52.250;8.478;2022-11-20T02:45:05;19.50;;;10.90;;
12112;SDS011;6120;52.250;8.478;2022-11-20T02:47:32;20.55;;;10.93;;
12112;SDS011;6120;52.250;8.478;2022-11-20T02:49:59;20.65;;;10.70;;
12112;SDS011;6120;52.250;8.478;2022-11-20T02:52:25;18.65;;;10.32;;
12112;SDS011;6120;52.250;8.478;2022-11-20T02:54:52;20.90;;;10.90;;
12112;SDS011;6120;52.250;8.478;2022-11-20T02:57:19;22.77;;;10.18;;
12112;SDS011;6120;52.250;8.478;2022-11-20T02:59:45;21.50;;;10.50;;
12112;SDS011;6120;52.250;8.478;2022-11-20T03:02:12;19.70;;;10.65;;
12112;SDS011;6120;52.250;8.478;2022-11-20T03:04:38;19.80;;;10.13;;
12112;SDS011;6120;52.250;8.478;2022-11-20T03:07:05;18.77;;;10.85;;
12112;SDS011;6120;52.250;8.478;2022-11-20T03:09:33;24.27;;;10.30;;
12112;SDS011;6120;52.250;8.478;2022-11-20T03:12:00;18.10;;;10.00;;
12112;SDS011;6120;52.250;8.478;2022-11-20T03:14:26;21.35;;;10.25;;
12112;SDS011;6120;52.250;8.478;2022-11-20T03:16:53;20.05;;;10.27;;
12112;SDS011;6120;52.250;8.478;2022-11-20T03:19:19;20.65;;;10.15;;
12112;SDS011;6120;52.250;8.478;2022-11-20T03:21:46;22.05;;;10.43;;
12112;SDS011;6120;52.250;8.478;2022-11-20T03:24:13;21.33;;;11.10;;
12112;SDS011;6120;52.250;8.478;2022-11-20T03:26:40;18.05;;;10.07;;
12112;SDS011;6120;52.250;8.478;2022-11-20T03:29:06;21.65;;;10.05;;
12112;SDS011;6120;52.250;8.478;2022-11-20T03:31:34;19.73;;;10.35;;
12112;SDS011;6120;52.250;8.478;2022-11-20T03:34:03;19.48;;;10.18;;
12112;SDS011;6120;52.250;8.478;2022-11-20T03:36:30;19.50;;;9.38;;
12112;SDS011;6120;52.250;8.478;2022-11-20T03:38:57;19.13;;;10.07;;
12112;SDS011;6120;52.250;8.478;2022-11-20T03:41:28;20.30;;;11.00;;
12112;SDS011;6120;52.250;8.478;2022-11-20T03:43:59;18.52;;;9.18;;
12112;SDS011;6120;52.250;8.478;2022-11-20T03:46:27;21.25;;;10.07;;
12112;SDS011;6120;52.250;8.478;2022-11-20T03:48:54;17.50;;;9.55;;
12112;SDS011;6120;52.250;8.478;2022-11-20T03:51:22;21.33;;;10.35;;
12112;SDS011;6120;52.250;8.478;2022-11-20T03:53:50;20.30;;;9.95;;
12112;SDS011;6120;52.250;8.478;2022-11-20T03:56:19;22.30;;;10.48;;
12112;SDS011;6120;52.250;8.478;2022-11-20T03:58:47;19.63;;;9.65;;
12112;SDS011;6120;52.250;8.478;2022-11-20T04:01:14;19.35;;;9.88;;
12112;SDS011;6120;52.250;8.478;2022-11-20T04:03:43;21.45;;;11.18;;
12112;SDS011;6120;52.250;8.478;2022-11-20T04:06:14;20.17;;;10.00;;
12112;SDS011;6120;52.250;8.478;2022-11-20T04:08:43;19.67;;;9.82;;
12112;SDS011;6120;52.250;8.478;2022-11-20T04:11:15;22.67;;;10.45;;
12112;SDS011;6120;52.250;8.478;2022-11-20T04:13:47;18.33;;;9.68;;
12112;SDS011;6120;52.250;8.478;2022-11-20T04:16:15;20.83;;;9.80;;
12112;SDS011;6120;52.250;8.478;2022-11-20T04:18:42;20.35;;;10.45;;
12112;SDS011;6120;52.250;8.478;2022-11-20T04:21:09;18.40;;;9.63;;
12112;SDS011;6120;52.250;8.478;2022-11-20T04:23:37;22.02;;;10.77;;
12112;SDS011;6120;52.250;8.478;2022-11-20T04:26:07;18.58;;;9.68;;
12112;SDS011;6120;52.250;8.478;2022-11-20T04:28:35;20.02;;;10.98;;
12112;SDS011;6120;52.250;8.478;2022-11-20T04:31:07;17.73;;;9.50;;
12112;SDS011;6120;52.250;8.478;2022-11-20T04:33:35;21.17;;;10.00;;
12112;SDS011;6120;52.250;8.478;2022-11-20T04:36:03;20.75;;;9.95;;
12112;SDS011;6120;52.250;8.478;2022-11-20T04:38:31;19.30;;;10.77;;
12112;SDS011;6120;52.250;8.478;2022-11-20T04:41:02;20.63;;;11.02;;
12112;SDS011;6120;52.250;8.478;2022-11-20T04:43:30;16.92;;;9.63;;
12112;SDS011;6120;52.250;8.478;2022-11-20T04:45:57;20.20;;;9.90;;
12112;SDS011;6120;52.250;8.478;2022-11-20T04:48:25;21.52;;;10.73;;
12112;SDS011;6120;52.250;8.478;2022-11-20T04:50:52;26.25;;;11.85;;
12112;SDS011;6120;52.250;8.478;2022-11-20T04:53:19;22.77;;;10.80;;
12112;SDS011;6120;52.250;8.478;2022-11-20T04:55:46;22.85;;;10.73;;
12112;SDS011;6120;52.250;8.478;2022-11-20T04:58:13;19.25;;;10.48;;
12112;SDS011;6120;52.250;8.478;2022-11-20T05:00:40;22.58;;;10.82;;
12112;SDS011;6120;52.250;8.478;2022-11-20T05:03:07;21.40;;;11.50;;
12112;SDS011;6120;52.250;8.478;2022-11-20T05:05:34;19.50;;;10.10;;
12112;SDS011;6120;52.250;8.478;2022-11-20T05:08:01;19.90;;;10.43;;
12112;SDS011;6120;52.250;8.478;2022-11-20T05:10:27;19.92;;;10.20;;
12112;SDS011;6120;52.250;8.478;2022-11-20T05:12:54;20.20;;;9.57;;
12112;SDS011;6120;52.250;8.478;2022-11-20T05:15:21;19.10;;;10.07;;
12112;SDS011;6120;52.250;8.478;2022-11-20T05:17:48;19.10;;;9.80;;
12112;SDS011;6120;52.250;8.478;2022-11-20T05:20:15;19.95;;;10.00;;
12112;SDS011;6120;52.250;8.478;2022-11-20T05:22:42;20.90;;;10.77;;
12112;SDS011;6120;52.250;8.478;2022-11-20T05:25:09;21.05;;;9.82;;
12112;SDS011;6120;52.250;8.478;2022-11-20T05:27:36;18.55;;;9.32;;
12112;SDS011;6120;52.250;8.478;2022-11-20T05:30:03;19.05;;;9.50;;
12112;SDS011;6120;52.250;8.478;2022-11-20T05:32:31;17.35;;;9.73;;
12112;SDS011;6120;52.250;8.478;2022-11-20T05:34:57;21.80;;;10.35;;
12112;SDS011;6120;52.250;8.478;2022-11-20T05:37:24;21.63;;;10.23;;
12112;SDS011;6120;52.250;8.478;2022-11-20T05:39:50;21.10;;;10.02;;
12112;SDS011;6120;52.250;8.478;2022-11-20T05:42:17;18.80;;;9.95;;
12112;SDS011;6120;52.250;8.478;2022-11-20T05:44:59;20.08;;;9.88;;
12112;SDS011;6120;52.250;8.478;2022-11-20T05:47:27;19.83;;;9.82;;
12112;SDS011;6120;52.250;8.478;2022-11-20T05:49:54;18.27;;;10.20;;
12112;SDS011;6120;52.250;8.478;2022-11-20T05:52:21;19.58;;;9.70;;
12112;SDS011;6120;52.250;8.478;2022-11-20T05:54:48;20.88;;;11.13;;
12112;SDS011;6120;52.250;8.478;2022-11-20T05:57:14;22.45;;;10.55;;
12112;SDS011;6120;52.250;8.478;2022-11-20T05:59:41;19.38;;;10.23;;
12112;SDS011;6120;52.250;8.478;2022-11-20T06:02:08;21.83;;;11.38;;
12112;SDS011;6120;52.250;8.478;2022-11-20T06:04:35;19.70;;;10.32;;
12112;SDS011;6120;52.250;8.478;2022-11-20T06:07:01;20.40;;;10.60;;
12112;SDS011;6120;52.250;8.478;2022-11-20T06:09:28;20.10;;;10.18;;
12112;SDS011;6120;52.250;8.478;2022-11-20T06:11:55;18.75;;;10.43;;
12112;SDS011;6120;52.250;8.478;2022-11-20T06:14:21;21.58;;;11.55;;
12112;SDS011;6120;52.250;8.478;2022-11-20T06:16:48;23.17;;;11.57;;
12112;SDS011;6120;52.250;8.478;2022-11-20T06:19:15;23.02;;;11.18;;
12112;SDS011;6120;52.250;8.478;2022-11-20T06:21:41;22.58;;;11.13;;
12112;SDS011;6120;52.250;8.478;2022-11-20T06:24:09;21.08;;;10.43;;
12112;SDS011;6120;52.250;8.478;2022-11-20T06:29:03;18.63;;;9.93;;
12112;SDS011;6120;52.250;8.478;2022-11-20T06:31:29;20.73;;;9.73;;
12112;SDS011;6120;52.250;8.478;2022-11-20T06:33:58;21.33;;;11.38;;
12112;SDS011;6120;52.250;8.478;2022-11-20T06:36:25;20.73;;;10.68;;
12112;SDS011;6120;52.250;8.478;2022-11-20T06:38:52;18.35;;;9.70;;
12112;SDS011;6120;52.250;8.478;2022-11-20T06:41:20;19.83;;;9.57;;
12112;SDS011;6120;52.250;8.478;2022-11-20T06:46:14;20.45;;;10.43;;
12112;SDS011;6120;52.250;8.478;2022-11-20T06:48:43;21.33;;;10.38;;
12112;SDS011;6120;52.250;8.478;2022-11-20T06:51:10;19.23;;;9.90;;
12112;SDS011;6120;52.250;8.478;2022-11-20T06:53:37;19.65;;;10.52;;
12112;SDS011;6120;52.250;8.478;2022-11-20T06:56:04;22.35;;;11.48;;
12112;SDS011;6120;52.250;8.478;2022-11-20T06:58:31;22.73;;;11.45;;
12112;SDS011;6120;52.250;8.478;2022-11-20T07:01:03;25.52;;;12.05;;
12112;SDS011;6120;52.250;8.478;2022-11-20T07:06:03;19.60;;;10.45;;
12112;SDS011;6120;52.250;8.478;2022-11-20T07:08:31;20.58;;;10.05;;
12112;SDS011;6120;52.250;8.478;2022-11-20T07:10:58;19.85;;;10.02;;
12112;SDS011;6120;52.250;8.478;2022-11-20T07:13:26;22.00;;;10.88;;
12112;SDS011;6120;52.250;8.478;2022-11-20T07:15:53;21.13;;;11.02;;
12112;SDS011;6120;52.250;8.478;2022-11-20T07:18:20;22.13;;;10.35;;
12112;SDS011;6120;52.250;8.478;2022-11-20T07:20:47;21.40;;;11.18;;
12112;SDS011;6120;52.250;8.478;2022-11-20T07:23:14;21.40;;;10.63;;
12112;SDS011;6120;52.250;8.478;2022-11-20T07:25:40;21.25;;;11.00;;
12112;SDS011;6120;52.250;8.478;2022-11-20T07:28:07;22.75;;;11.10;;
12112;SDS011;6120;52.250;8.478;2022-11-20T07:30:33;22.83;;;11.07;;
12112;SDS011;6120;52.250;8.478;2022-11-20T07:33:00;21.60;;;10.63;;
12112;SDS011;6120;52.250;8.478;2022-11-20T07:35:27;18.77;;;10.48;;
12112;SDS011;6120;52.250;8.478;2022-11-20T07:37:53;21.05;;;11.10;;
12112;SDS011;6120;52.250;8.478;2022-11-20T07:40:20;20.05;;;11.00;;
12112;SDS011;6120;52.250;8.478;2022-11-20T07:42:47;22.23;;;10.48;;
12112;SDS011;6120;52.250;8.478;2022-11-20T07:45:18;21.83;;;10.48;;
12112;SDS011;6120;52.250;8.478;2022-11-20T07:47:45;18.55;;;9.82;;
12112;SDS011;6120;52.250;8.478;2022-11-20T07:50:12;20.23;;;10.63;;
12112;SDS011;6120;52.250;8.478;2022-11-20T07:52:39;16.88;;;9.65;;
12112;SDS011;6120;52.250;8.478;2022-11-20T07:55:06;18.85;;;10.43;;
12112;SDS011;6120;52.250;8.478;2022-11-20T07:57:34;21.63;;;10.57;;
12112;SDS011;6120;52.250;8.478;2022-11-20T08:00:01;21.40;;;10.80;;
12112;SDS011;6120;52.250;8.478;2022-11-20T08:02:28;19.70;;;10.27;;
12112;SDS011;6120;52.250;8.478;2022-11-20T08:04:55;21.33;;;10.52;;
12112;SDS011;6120;52.250;8.478;2022-11-20T08:07:21;18.77;;;10.80;;
12112;SDS011;6120;52.250;8.478;2022-11-20T08:09:48;18.77;;;11.13;;
12112;SDS011;6120;52.250;8.478;2022-11-20T08:12:18;19.65;;;11.10;;
12112;SDS011;6120;52.250;8.478;2022-11-20T08:15:05;17.50;;;10.10;;
12112;SDS011;6120;52.250;8.478;2022-11-20T08:17:38;21.95;;;10.43;;
12112;SDS011;6120;52.250;8.478;2022-11-20T08:20:04;19.55;;;10.45;;
12112;SDS011;6120;52.250;8.478;2022-11-20T08:22:31;20.80;;;11.30;;
12112;SDS011;6120;52.250;8.478;2022-11-20T08:24:58;20.50;;;10.85;;
12112;SDS011;6120;52.250;8.478;2022-11-20T08:27:25;18.95;;;10.43;;
12112;SDS011;6120;52.250;8.478;2022-11-20T08:29:51;17.23;;;9.80;;
12112;SDS011;6120;52.250;8.478;2022-11-20T08:32:18;19.17;;;10.43;;
12112;SDS011;6120;52.250;8.478;2022-11-20T08:34:45;20.40;;;11.00;;
12112;SDS011;6120;52.250;8.478;2022-11-20T08:37:12;19.35;;;10.32;;
12112;SDS011;6120;52.250;8.478;2022-11-20T08:39:39;19.58;;;10.63;;
12112;SDS011;6120;52.250;8.478;2022-11-20T08:42:08;18.80;;;10.20;;
12112;SDS011;6120;52.250;8.478;2022-11-20T08:44:35;17.92;;;9.93;;
12112;SDS011;6120;52.250;8.478;2022-11-20T08:47:01;19.92;;;10.80;;
12112;SDS011;6120;52.250;8.478;2022-11-20T08:49:28;20.48;;;10.63;;
12112;SDS011;6120;52.250;8.478;2022-11-20T08:51:54;19.13;;;10.50;;
12112;SDS011;6120;52.250;8.478;2022-11-20T08:54:21;18.83;;;10.10;;
12112;SDS011;6120;52.250;8.478;2022-11-20T08:56:48;17.63;;;9.77;;
12112;SDS011;6120;52.250;8.478;2022-11-20T08:59:15;18.88;;;8.98;;
12112;SDS011;6120;52.250;8.478;2022-11-20T09:02:01;18.45;;;9.77;;
12112;SDS011;6120;52.250;8.478;2022-11-20T09:04:28;17.58;;;9.73;;
12112;SDS011;6120;52.250;8.478;2022-11-20T09:06:55;18.50;;;10.25;;
12112;SDS011;6120;52.250;8.478;2022-11-20T09:09:21;21.40;;;11.13;;
12112;SDS011;6120;52.250;8.478;2022-11-20T09:11:48;24.17;;;10.93;;
12112;SDS011;6120;52.250;8.478;2022-11-20T09:14:16;17.93;;;9.90;;
12112;SDS011;6120;52.250;8.478;2022-11-20T09:16:44;22.55;;;11.20;;
12112;SDS011;6120;52.250;8.478;2022-11-20T09:19:11;19.17;;;10.38;;
12112;SDS011;6120;52.250;8.478;2022-11-20T09:21:58;21.45;;;11.77;;
12112;SDS011;6120;52.250;8.478;2022-11-20T09:24:26;24.52;;;11.15;;
12112;SDS011;6120;52.250;8.478;2022-11-20T09:26:54;21.83;;;10.38;;
12112;SDS011;6120;52.250;8.478;2022-11-20T09:29:20;22.75;;;12.05;;
12112;SDS011;6120;52.250;8.478;2022-11-20T09:31:48;22.55;;;11.30;;
12112;SDS011;6120;52.250;8.478;2022-11-20T09:34:15;22.55;;;11.45;;
12112;SDS011;6120;52.250;8.478;2022-11-20T09:36:43;26.73;;;12.88;;
12112;SDS011;6120;52.250;8.478;2022-11-20T09:39:10;23.17;;;11.77;;
12112;SDS011;6120;52.250;8.478;2022-11-20T09:41:56;26.25;;;12.60;;
12112;SDS011;6120;52.250;8.478;2022-11-20T09:47:21;23.77;;;11.75;;
12112;SDS011;6120;52.250;8.478;2022-11-20T09:55:47;27.90;;;13.15;;
12112;SDS011;6120;52.250;8.478;2022-11-20T10:01:10;32.72;;;13.70;;
12112;SDS011;6120;52.250;8.478;2022-11-20T10:03:39;35.95;;;15.00;;
12112;SDS011;6120;52.250;8.478;2022-11-20T10:06:12;32.53;;;13.35;;
12112;SDS011;6120;52.250;8.478;2022-11-20T10:08:43;35.50;;;15.27;;
12112;SDS011;6120;52.250;8.478;2022-11-20T10:11:17;35.83;;;15.70;;
12112;SDS011;6120;52.250;8.478;2022-11-20T10:30:43;34.22;;;15.05;;
12112;SDS011;6120;52.250;8.478;2022-11-20T10:33:21;35.60;;;14.95;;
12112;SDS011;6120;52.250;8.478;2022-11-20T10:38:29;31.48;;;13.90;;
12112;SDS011;6120;52.250;8.478;2022-11-20T10:40:59;27.92;;;13.32;;
12112;SDS011;6120;52.250;8.478;2022-11-20T10:43:46;29.65;;;13.38;;
12112;SDS011;6120;52.250;8.478;2022-11-20T10:46:21;29.25;;;14.27;;
12112;SDS011;6120;52.250;8.478;2022-11-20T10:48:48;25.45;;;12.90;;
12112;SDS011;6120;52.250;8.478;2022-11-20T10:56:41;28.30;;;14.02;;
12112;SDS011;6120;52.250;8.478;2022-11-20T11:02:00;25.35;;;12.57;;
12112;SDS011;6120;52.250;8.478;2022-11-20T11:07:03;27.02;;;12.23;;
12112;SDS011;6120;52.250;8.478;2022-11-20T11:09:40;29.63;;;13.85;;
12112;SDS011;6120;52.250;8.478;2022-11-20T11:12:09;24.88;;;12.85;;
12112;SDS011;6120;52.250;8.478;2022-11-20T11:14:49;26.95;;;13.38;;
12112;SDS011;6120;52.250;8.478;2022-11-20T11:17:30;25.70;;;12.48;;
12112;SDS011;6120;52.250;8.478;2022-11-20T11:22:43;28.38;;;12.98;;
12112;SDS011;6120;52.250;8.478;2022-11-20T11:27:55;26.38;;;12.82;;
12112;SDS011;6120;52.250;8.478;2022-11-20T11:30:25;22.60;;;11.75;;
12112;SDS011;6120;52.250;8.478;2022-11-20T11:33:05;22.35;;;12.23;;
12112;SDS011;6120;52.250;8.478;2022-11-20T11:35:39;21.38;;;11.50;;
12112;SDS011;6120;52.250;8.478;2022-11-20T11:38:17;25.90;;;13.10;;
12112;SDS011;6120;52.250;8.478;2022-11-20T11:40:47;24.45;;;12.23;;
12112;SDS011;6120;52.250;8.478;2022-11-20T11:43:18;22.65;;;11.80;;
12112;SDS011;6120;52.250;8.478;2022-11-20T11:51:34;23.85;;;12.00;;
12112;SDS011;6120;52.250;8.478;2022-11-20T11:54:06;24.88;;;13.05;;
12112;SDS011;6120;52.250;8.478;2022-11-20T11:56:40;22.65;;;11.60;;
12112;SDS011;6120;52.250;8.478;2022-11-20T11:59:09;26.35;;;13.00;;
12112;SDS011;6120;52.250;8.478;2022-11-20T12:01:42;24.70;;;12.98;;
12112;SDS011;6120;52.250;8.478;2022-11-20T12:07:04;30.38;;;15.20;;
12112;SDS011;6120;52.250;8.478;2022-11-20T12:09:56;25.40;;;13.88;;
12112;SDS011;6120;52.250;8.478;2022-11-20T12:12:31;23.98;;;13.02;;
12112;SDS011;6120;52.250;8.478;2022-11-20T12:15:03;26.40;;;13.00;;
12112;SDS011;6120;52.250;8.478;2022-11-20T12:17:31;27.52;;;12.57;;
12112;SDS011;6120;52.250;8.478;2022-11-20T12:19:57;27.42;;;14.98;;
12112;SDS011;6120;52.250;8.478;2022-11-20T12:30:46;21.95;;;11.63;;
12112;SDS011;6120;52.250;8.478;2022-11-20T12:36:12;19.17;;;11.10;;
12112;SDS011;6120;52.250;8.478;2022-11-20T12:45:19;18.27;;;10.55;;
12112;SDS011;6120;52.250;8.478;2022-11-20T12:58:45;15.77;;;9.00;;
12112;SDS011;6120;52.250;8.478;2022-11-20T13:01:25;15.68;;;8.20;;
12112;SDS011;6120;52.250;8.478;2022-11-20T13:06:43;12.85;;;8.02;;
12112;SDS011;6120;52.250;8.478;2022-11-20T13:09:11;15.55;;;8.27;;
12112;SDS011;6120;52.250;8.478;2022-11-20T13:19:17;13.13;;;7.63;;
12112;SDS011;6120;52.250;8.478;2022-11-20T13:21:45;16.25;;;7.03;;
12112;SDS011;6120;52.250;8.478;2022-11-20T13:26:45;15.07;;;7.70;;
12112;SDS011;6120;52.250;8.478;2022-11-20T13:29:16;14.25;;;7.63;;
12112;SDS011;6120;52.250;8.478;2022-11-20T13:31:45;14.93;;;7.95;;
12112;SDS011;6120;52.250;8.478;2022-11-20T13:34:14;11.20;;;6.70;;
12112;SDS011;6120;52.250;8.478;2022-11-20T13:36:50;12.30;;;7.00;;
12112;SDS011;6120;52.250;8.478;2022-11-20T13:42:03;11.27;;;6.47;;
12112;SDS011;6120;52.250;8.478;2022-11-20T13:45:00;11.63;;;6.55;;
12112;SDS011;6120;52.250;8.478;2022-11-20T13:47:29;14.55;;;7.07;;
12112;SDS011;6120;52.250;8.478;2022-11-20T13:49:57;11.50;;;6.35;;
12112;SDS011;6120;52.250;8.478;2022-11-20T13:55:18;10.30;;;6.07;;
12112;SDS011;6120;52.250;8.478;2022-11-20T13:57:56;10.65;;;6.00;;
12112;SDS011;6120;52.250;8.478;2022-11-20T14:00:51;10.15;;;5.72;;
12112;SDS011;6120;52.250;8.478;2022-11-20T14:03:25;9.77;;;5.72;;
12112;SDS011;6120;52.250;8.478;2022-11-20T14:06:25;10.20;;;5.60;;
12112;SDS011;6120;52.250;8.478;2022-11-20T14:08:53;13.05;;;6.30;;
12112;SDS011;6120;52.250;8.478;2022-11-20T14:11:21;9.48;;;5.72;;
12112;SDS011;6120;52.250;8.478;2022-11-20T14:14:13;10.35;;;5.43;;
12112;SDS011;6120;52.250;8.478;2022-11-20T14:16:41;10.73;;;6.28;;
12112;SDS011;6120;52.250;8.478;2022-11-20T14:19:23;11.07;;;5.80;;
12112;SDS011;6120;52.250;8.478;2022-11-20T14:21:52;10.25;;;6.55;;
12112;SDS011;6120;52.250;8.478;2022-11-20T14:24:35;9.82;;;5.53;;
12112;SDS011;6120;52.250;8.478;2022-11-20T14:27:02;9.80;;;5.85;;
12112;SDS011;6120;52.250;8.478;2022-11-20T14:29:35;10.40;;;5.93;;
12112;SDS011;6120;52.250;8.478;2022-11-20T14:32:03;8.95;;;5.68;;
12112;SDS011;6120;52.250;8.478;2022-11-20T14:34:31;10.73;;;5.60;;
12112;SDS011;6120;52.250;8.478;2022-11-20T14:37:00;9.18;;;5.72;;
12112;SDS011;6120;52.250;8.478;2022-11-20T14:39:30;12.48;;;6.50;;
12112;SDS011;6120;52.250;8.478;2022-11-20T14:41:58;10.13;;;5.93;;
12112;SDS011;6120;52.250;8.478;2022-11-20T14:44:26;11.75;;;6.50;;
12112;SDS011;6120;52.250;8.478;2022-11-20T14:46:54;10.50;;;6.22;;
12112;SDS011;6120;52.250;8.478;2022-11-20T14:49:21;12.95;;;6.60;;
12112;SDS011;6120;52.250;8.478;2022-11-20T14:51:57;14.75;;;7.75;;
12112;SDS011;6120;52.250;8.478;2022-11-20T14:54:27;13.27;;;7.28;;
12112;SDS011;6120;52.250;8.478;2022-11-20T14:59:23;18.90;;;8.40;;
12112;SDS011;6120;52.250;8.478;2022-11-20T15:02:24;16.33;;;9.18;;
12112;SDS011;6120;52.250;8.478;2022-11-20T15:04:50;20.27;;;9.18;;
12112;SDS011;6120;52.250;8.478;2022-11-20T15:07:26;17.42;;;8.93;;
12112;SDS011;6120;52.250;8.478;2022-11-20T15:15:25;19.80;;;10.13;;
12112;SDS011;6120;52.250;8.478;2022-11-20T15:18:03;20.60;;;9.60;;
12112;SDS011;6120;52.250;8.478;2022-11-20T15:20:31;16.58;;;9.05;;
12112;SDS011;6120;52.250;8.478;2022-11-20T15:22:59;18.83;;;9.80;;
12112;SDS011;6120;52.250;8.478;2022-11-20T15:25:25;16.33;;;9.52;;
12112;SDS011;6120;52.250;8.478;2022-11-20T15:27:54;19.02;;;9.52;;
12112;SDS011;6120;52.250;8.478;2022-11-20T15:30:22;20.23;;;10.45;;
12112;SDS011;6120;52.250;8.478;2022-11-20T15:32:50;22.40;;;11.00;;
12112;SDS011;6120;52.250;8.478;2022-11-20T15:35:16;21.92;;;10.90;;
12112;SDS011;6120;52.250;8.478;2022-11-20T15:37:43;22.95;;;11.38;;
12112;SDS011;6120;52.250;8.478;2022-11-20T15:40:09;22.88;;;11.95;;
12112;SDS011;6120;52.250;8.478;2022-11-20T15:42:37;23.48;;;11.57;;
12112;SDS011;6120;52.250;8.478;2022-11-20T15:45:03;22.58;;;10.90;;
12112;SDS011;6120;52.250;8.478;2022-11-20T15:47:34;21.60;;;10.93;;
12112;SDS011;6120;52.250;8.478;2022-11-20T15:50:01;19.45;;;9.85;;
12112;SDS011;6120;52.250;8.478;2022-11-20T15:52:28;21.00;;;9.90;;
12112;SDS011;6120;52.250;8.478;2022-11-20T15:55:09;17.40;;;9.60;;
12112;SDS011;6120;52.250;8.478;2022-11-20T15:57:36;18.27;;;9.50;;
12112;SDS011;6120;52.250;8.478;2022-11-20T16:00:03;18.27;;;10.00;;
12112;SDS011;6120;52.250;8.478;2022-11-20T16:02:30;18.60;;;9.10;;
12112;SDS011;6120;52.250;8.478;2022-11-20T16:04:56;18.55;;;10.05;;
12112;SDS011;6120;52.250;8.478;2022-11-20T16:07:23;20.17;;;9.77;;
12112;SDS011;6120;52.250;8.478;2022-11-20T16:09:49;18.35;;;9.80;;
12112;SDS011;6120;52.250;8.478;2022-11-20T16:12:16;26.60;;;11.77;;
12112;SDS011;6120;52.250;8.478;2022-11-20T16:15:02;25.42;;;11.25;;
12112;SDS011;6120;52.250;8.478;2022-11-20T16:17:48;25.98;;;11.82;;
12112;SDS011;6120;52.250;8.478;2022-11-20T16:20:15;23.15;;;11.80;;
12112;SDS011;6120;52.250;8.478;2022-11-20T16:22:41;25.15;;;11.98;;
12112;SDS011;6120;52.250;8.478;2022-11-20T16:25:08;27.60;;;11.85;;
12112;SDS011;6120;52.250;8.478;2022-11-20T16:27:35;29.88;;;12.45;;
12112;SDS011;6120;52.250;8.478;2022-11-20T16:30:01;28.67;;;12.95;;
12112;SDS011;6120;52.250;8.478;2022-11-20T16:32:28;28.83;;;13.45;;
12112;SDS011;6120;52.250;8.478;2022-11-20T16:34:55;30.50;;;13.73;;
12112;SDS011;6120;52.250;8.478;2022-11-20T16:37:21;28.23;;;13.75;;
12112;SDS011;6120;52.250;8.478;2022-11-20T16:39:48;28.60;;;13.38;;
12112;SDS011;6120;52.250;8.478;2022-11-20T16:42:15;35.22;;;14.02;;
12112;SDS011;6120;52.250;8.478;2022-11-20T16:44:41;31.85;;;13.95;;
12112;SDS011;6120;52.250;8.478;2022-11-20T16:47:11;27.95;;;13.82;;
12112;SDS011;6120;52.250;8.478;2022-11-20T16:49:38;28.25;;;13.43;;
12112;SDS011;6120;52.250;8.478;2022-11-20T16:52:04;28.13;;;13.68;;
12112;SDS011;6120;52.250;8.478;2022-11-20T16:54:31;29.85;;;13.20;;
12112;SDS011;6120;52.250;8.478;2022-11-20T16:56:57;25.73;;;12.70;;